sensor_id;sensor_type;location;lat;lon;timestamp;pressure;altitude;pressure_sealevel;temperature;humidity
54920;BME280;63804;53.120;8.764;2023-03-22T00:01:16;100994.00;;;8.66;78.70
54920;BME280;63804;53.120;8.764;2023-03-22T00:03:44;100986.25;;;8.63;78.68
54920;BME280;63804;53.120;8.764;2023-03-22T00:06:09;100989.25;;;8.58;78.83
54920;BME280;63804;53.120;8.764;2023-03-22T00:08:35;100984.16;;;8.55;78.94
54920;BME280;63804;53.120;8.764;2023-03-22T00:11:02;100987.84;;;8.53;78.87
54920;BME280;63804;53.120;8.764;2023-03-22T00:13:27;100976.41;;;8.52;78.75
54920;BME280;63804;53.120;8.764;2023-03-22T00:15:54;100975.78;;;8.48;78.90
54920;BME280;63804;53.120;8.764;2023-03-22T00:18:19;100974.31;;;8.44;79.03
54920;BME280;63804;53.120;8.764;2023-03-22T00:20:49;100971.88;;;8.41;79.31
54920;BME280;63804;53.120;8.764;2023-03-22T00:23:15;100967.97;;;8.34;79.60
54920;BME280;63804;53.120;8.764;2023-03-22T00:25:43;100966.06;;;8.36;79.38
54920;BME280;63804;53.120;8.764;2023-03-22T00:28:09;100958.31;;;8.33;79.37
54920;BME280;63804;53.120;8.764;2023-03-22T00:30:34;100958.97;;;8.37;79.55
54920;BME280;63804;53.120;8.764;2023-03-22T00:33:00;100953.78;;;8.35;79.26
54920;BME280;63804;53.120;8.764;2023-03-22T00:35:25;100951.22;;;8.34;79.21
54920;BME280;63804;53.120;8.764;2023-03-22T00:37:51;100958.53;;;8.30;79.35
54920;BME280;63804;53.120;8.764;2023-03-22T00:40:16;100954.63;;;8.36;79.18
54920;BME280;63804;53.120;8.764;2023-03-22T00:42:42;100946.81;;;8.34;79.38
54920;BME280;63804;53.120;8.764;2023-03-22T00:45:09;100954.00;;;8.32;79.44
54920;BME280;63804;53.120;8.764;2023-03-22T00:47:35;100943.41;;;8.32;79.45
54920;BME280;63804;53.120;8.764;2023-03-22T00:50:01;100940.63;;;8.34;79.18
54920;BME280;63804;53.120;8.764;2023-03-22T00:52:27;100939.47;;;8.38;79.01
54920;BME280;63804;53.120;8.764;2023-03-22T00:54:54;100934.94;;;8.40;78.94
54920;BME280;63804;53.120;8.764;2023-03-22T00:57:20;100931.97;;;8.32;79.43
54920;BME280;63804;53.120;8.764;2023-03-22T00:59:46;100930.03;;;8.34;79.55
54920;BME280;63804;53.120;8.764;2023-03-22T01:02:11;100931.44;;;8.39;79.15
54920;BME280;63804;53.120;8.764;2023-03-22T01:04:41;100929.63;;;8.40;79.07
54920;BME280;63804;53.120;8.764;2023-03-22T01:07:11;100921.34;;;8.44;78.95
54920;BME280;63804;53.120;8.764;2023-03-22T01:09:44;100925.72;;;8.45;78.66
54920;BME280;63804;53.120;8.764;2023-03-22T01:12:12;100921.16;;;8.35;79.26
54920;BME280;63804;53.120;8.764;2023-03-22T01:14:38;100920.22;;;8.36;79.30
54920;BME280;63804;53.120;8.764;2023-03-22T01:17:04;100926.34;;;8.36;79.34
54920;BME280;63804;53.120;8.764;2023-03-22T01:19:32;100923.50;;;8.39;79.37
54920;BME280;63804;53.120;8.764;2023-03-22T01:21:58;100915.97;;;8.46;79.00
54920;BME280;63804;53.120;8.764;2023-03-22T01:24:24;100909.50;;;8.50;79.00
54920;BME280;63804;53.120;8.764;2023-03-22T01:26:49;100899.75;;;8.51;78.85
54920;BME280;63804;53.120;8.764;2023-03-22T01:29:15;100901.13;;;8.43;79.46
54920;BME280;63804;53.120;8.764;2023-03-22T01:31:42;100895.22;;;8.40;79.28
54920;BME280;63804;53.120;8.764;2023-03-22T01:34:07;100894.47;;;8.38;79.70
54920;BME280;63804;53.120;8.764;2023-03-22T01:36:33;100887.41;;;8.38;79.48
54920;BME280;63804;53.120;8.764;2023-03-22T01:38:58;100893.41;;;8.40;79.47
54920;BME280;63804;53.120;8.764;2023-03-22T01:41:24;100886.22;;;8.42;79.56
54920;BME280;63804;53.120;8.764;2023-03-22T01:44:19;100879.22;;;8.41;79.78
54920;BME280;63804;53.120;8.764;2023-03-22T01:46:47;100872.84;;;8.44;79.52
54920;BME280;63804;53.120;8.764;2023-03-22T01:51:50;100874.25;;;8.49;79.29
54920;BME280;63804;53.120;8.764;2023-03-22T01:54:31;100875.72;;;8.54;79.11
54920;BME280;63804;53.120;8.764;2023-03-22T01:56:59;100876.66;;;8.53;79.06
54920;BME280;63804;53.120;8.764;2023-03-22T01:59:26;100874.97;;;8.52;79.39
54920;BME280;63804;53.120;8.764;2023-03-22T02:01:52;100869.25;;;8.58;79.22
54920;BME280;63804;53.120;8.764;2023-03-22T02:04:20;100862.00;;;8.60;78.93
54920;BME280;63804;53.120;8.764;2023-03-22T02:06:53;100862.22;;;8.57;79.02
54920;BME280;63804;53.120;8.764;2023-03-22T02:09:19;100859.81;;;8.54;79.14
54920;BME280;63804;53.120;8.764;2023-03-22T02:12:13;100849.72;;;8.59;79.18
54920;BME280;63804;53.120;8.764;2023-03-22T02:15:04;100855.25;;;8.56;79.19
54920;BME280;63804;53.120;8.764;2023-03-22T02:26:32;100850.47;;;8.61;78.92
54920;BME280;63804;53.120;8.764;2023-03-22T02:29:09;100855.03;;;8.59;78.94
54920;BME280;63804;53.120;8.764;2023-03-22T02:35:02;100847.09;;;8.59;78.97
54920;BME280;63804;53.120;8.764;2023-03-22T02:40:32;100851.72;;;8.68;78.65
54920;BME280;63804;53.120;8.764;2023-03-22T02:45:55;100841.66;;;8.73;77.94
54920;BME280;63804;53.120;8.764;2023-03-22T02:48:28;100848.63;;;8.74;78.31
54920;BME280;63804;53.120;8.764;2023-03-22T02:51:08;100838.03;;;8.74;78.08
54920;BME280;63804;53.120;8.764;2023-03-22T02:53:42;100845.84;;;8.76;78.17
54920;BME280;63804;53.120;8.764;2023-03-22T02:56:18;100840.34;;;8.79;77.69
54920;BME280;63804;53.120;8.764;2023-03-22T02:58:49;100831.53;;;8.78;77.73
54920;BME280;63804;53.120;8.764;2023-03-22T03:01:35;100833.22;;;8.79;77.53
54920;BME280;63804;53.120;8.764;2023-03-22T03:04:06;100829.41;;;8.83;77.54
54920;BME280;63804;53.120;8.764;2023-03-22T03:06:36;100828.47;;;8.84;77.32
54920;BME280;63804;53.120;8.764;2023-03-22T03:09:12;100825.81;;;8.84;77.42
54920;BME280;63804;53.120;8.764;2023-03-22T03:11:45;100832.16;;;8.82;77.67
54920;BME280;63804;53.120;8.764;2023-03-22T03:14:28;100829.66;;;8.80;77.73
54920;BME280;63804;53.120;8.764;2023-03-22T03:19:42;100824.97;;;8.84;77.39
54920;BME280;63804;53.120;8.764;2023-03-22T03:25:37;100821.69;;;8.80;77.68
54920;BME280;63804;53.120;8.764;2023-03-22T03:28:08;100824.44;;;8.79;77.46
54920;BME280;63804;53.120;8.764;2023-03-22T03:30:48;100817.13;;;8.82;77.63
54920;BME280;63804;53.120;8.764;2023-03-22T03:33:19;100828.34;;;8.86;77.44
54920;BME280;63804;53.120;8.764;2023-03-22T03:36:00;100826.31;;;8.89;77.21
54920;BME280;63804;53.120;8.764;2023-03-22T03:38:30;100824.72;;;8.87;77.42
54920;BME280;63804;53.120;8.764;2023-03-22T03:41:05;100829.41;;;8.83;77.47
54920;BME280;63804;53.120;8.764;2023-03-22T03:43:32;100826.88;;;8.82;77.46
54920;BME280;63804;53.120;8.764;2023-03-22T03:45:58;100822.31;;;8.84;77.38
54920;BME280;63804;53.120;8.764;2023-03-22T03:48:29;100824.09;;;8.83;77.46
54920;BME280;63804;53.120;8.764;2023-03-22T03:51:00;100819.53;;;8.85;77.42
54920;BME280;63804;53.120;8.764;2023-03-22T03:53:26;100825.91;;;8.83;77.35
54920;BME280;63804;53.120;8.764;2023-03-22T03:55:52;100822.31;;;8.84;77.37
54920;BME280;63804;53.120;8.764;2023-03-22T03:58:17;100826.03;;;8.81;77.51
54920;BME280;63804;53.120;8.764;2023-03-22T04:00:44;100811.81;;;8.82;77.23
54920;BME280;63804;53.120;8.764;2023-03-22T04:03:11;100807.25;;;8.84;77.10
54920;BME280;63804;53.120;8.764;2023-03-22T04:05:36;100814.97;;;8.87;77.22
54920;BME280;63804;53.120;8.764;2023-03-22T04:08:02;100813.00;;;8.78;77.25
54920;BME280;63804;53.120;8.764;2023-03-22T04:10:28;100813.84;;;8.79;77.16
54920;BME280;63804;53.120;8.764;2023-03-22T04:12:53;100808.31;;;8.82;77.31
54920;BME280;63804;53.120;8.764;2023-03-22T04:15:19;100807.25;;;8.84;76.92
54920;BME280;63804;53.120;8.764;2023-03-22T04:17:44;100807.00;;;8.87;76.92
54920;BME280;63804;53.120;8.764;2023-03-22T04:20:11;100808.94;;;8.85;77.12
54920;BME280;63804;53.120;8.764;2023-03-22T04:22:56;100803.66;;;8.85;76.65
54920;BME280;63804;53.120;8.764;2023-03-22T04:25:22;100799.06;;;8.87;76.80
54920;BME280;63804;53.120;8.764;2023-03-22T04:27:48;100798.84;;;8.90;76.48
54920;BME280;63804;53.120;8.764;2023-03-22T04:30:15;100800.78;;;8.88;76.81
54920;BME280;63804;53.120;8.764;2023-03-22T04:32:45;100799.94;;;8.88;76.85
54920;BME280;63804;53.120;8.764;2023-03-22T04:35:11;100803.22;;;8.91;76.64
54920;BME280;63804;53.120;8.764;2023-03-22T04:37:37;100795.91;;;8.82;76.84
54920;BME280;63804;53.120;8.764;2023-03-22T04:40:03;100796.16;;;8.79;76.90
54920;BME280;63804;53.120;8.764;2023-03-22T04:42:33;100786.38;;;8.80;77.12
54920;BME280;63804;53.120;8.764;2023-03-22T04:44:59;100790.63;;;8.82;76.86
54920;BME280;63804;53.120;8.764;2023-03-22T04:47:25;100791.59;;;8.81;76.82
54920;BME280;63804;53.120;8.764;2023-03-22T04:49:50;100785.81;;;8.76;77.05
54920;BME280;63804;53.120;8.764;2023-03-22T04:52:16;100782.19;;;8.77;76.75
54920;BME280;63804;53.120;8.764;2023-03-22T04:54:42;100781.44;;;8.75;76.94
54920;BME280;63804;53.120;8.764;2023-03-22T04:57:07;100778.78;;;8.75;76.95
54920;BME280;63804;53.120;8.764;2023-03-22T04:59:33;100783.88;;;8.78;76.57
54920;BME280;63804;53.120;8.764;2023-03-22T05:01:59;100781.22;;;8.78;76.57
54920;BME280;63804;53.120;8.764;2023-03-22T05:04:25;100777.38;;;8.82;76.62
54920;BME280;63804;53.120;8.764;2023-03-22T05:06:51;100777.16;;;8.85;76.32
54920;BME280;63804;53.120;8.764;2023-03-22T05:09:17;100781.22;;;8.78;76.52
54920;BME280;63804;53.120;8.764;2023-03-22T05:11:43;100775.19;;;8.76;76.29
54920;BME280;63804;53.120;8.764;2023-03-22T05:14:09;100784.63;;;8.80;76.34
54920;BME280;63804;53.120;8.764;2023-03-22T05:16:35;100770.50;;;8.80;76.58
54920;BME280;63804;53.120;8.764;2023-03-22T05:19:00;100773.88;;;8.82;76.38
54920;BME280;63804;53.120;8.764;2023-03-22T05:21:27;100766.91;;;8.81;76.11
54920;BME280;63804;53.120;8.764;2023-03-22T05:23:57;100767.00;;;8.79;76.32
54920;BME280;63804;53.120;8.764;2023-03-22T05:26:26;100762.91;;;8.75;76.16
54920;BME280;63804;53.120;8.764;2023-03-22T05:28:52;100761.72;;;8.79;76.36
54920;BME280;63804;53.120;8.764;2023-03-22T05:31:19;100757.03;;;8.83;76.15
54920;BME280;63804;53.120;8.764;2023-03-22T05:33:47;100760.41;;;8.85;75.61
54920;BME280;63804;53.120;8.764;2023-03-22T05:36:15;100755.75;;;8.88;75.76
54920;BME280;63804;53.120;8.764;2023-03-22T05:38:41;100744.53;;;8.85;75.81
54920;BME280;63804;53.120;8.764;2023-03-22T05:41:07;100748.41;;;8.92;75.31
54920;BME280;63804;53.120;8.764;2023-03-22T05:43:32;100744.03;;;8.91;75.45
54920;BME280;63804;53.120;8.764;2023-03-22T05:45:58;100748.06;;;8.96;75.36
54920;BME280;63804;53.120;8.764;2023-03-22T05:48:23;100751.69;;;8.95;75.28
54920;BME280;63804;53.120;8.764;2023-03-22T05:50:49;100741.69;;;8.99;75.37
54920;BME280;63804;53.120;8.764;2023-03-22T05:53:15;100741.78;;;8.97;75.40
54920;BME280;63804;53.120;8.764;2023-03-22T05:55:40;100739.25;;;8.96;75.25
54920;BME280;63804;53.120;8.764;2023-03-22T05:58:06;100747.00;;;8.99;75.20
54920;BME280;63804;53.120;8.764;2023-03-22T06:00:32;100742.53;;;9.00;75.23
54920;BME280;63804;53.120;8.764;2023-03-22T06:02:58;100744.22;;;9.01;75.42
54920;BME280;63804;53.120;8.764;2023-03-22T06:05:29;100738.06;;;9.00;75.49
54920;BME280;63804;53.120;8.764;2023-03-22T06:07:56;100732.53;;;9.03;75.15
54920;BME280;63804;53.120;8.764;2023-03-22T06:10:22;100740.59;;;9.02;75.04
54920;BME280;63804;53.120;8.764;2023-03-22T06:12:49;100738.78;;;9.02;75.49
54920;BME280;63804;53.120;8.764;2023-03-22T06:15:15;100722.78;;;9.04;75.46
54920;BME280;63804;53.120;8.764;2023-03-22T06:17:40;100731.97;;;9.11;75.20
54920;BME280;63804;53.120;8.764;2023-03-22T06:20:07;100725.47;;;9.15;74.97
54920;BME280;63804;53.120;8.764;2023-03-22T06:22:36;100729.66;;;9.17;75.04
54920;BME280;63804;53.120;8.764;2023-03-22T06:25:03;100721.63;;;9.19;75.22
54920;BME280;63804;53.120;8.764;2023-03-22T06:27:28;100727.84;;;9.18;75.15
54920;BME280;63804;53.120;8.764;2023-03-22T06:29:54;100730.50;;;9.18;75.42
54920;BME280;63804;53.120;8.764;2023-03-22T06:32:21;100726.41;;;9.25;75.43
54920;BME280;63804;53.120;8.764;2023-03-22T06:34:51;100722.84;;;9.26;75.36
54920;BME280;63804;53.120;8.764;2023-03-22T06:37:16;100726.69;;;9.33;75.00
54920;BME280;63804;53.120;8.764;2023-03-22T06:39:42;100722.09;;;9.35;75.03
54920;BME280;63804;53.120;8.764;2023-03-22T06:42:08;100719.00;;;9.41;74.86
54920;BME280;63804;53.120;8.764;2023-03-22T06:44:33;100718.03;;;9.42;75.09
54920;BME280;63804;53.120;8.764;2023-03-22T06:46:59;100715.59;;;9.39;75.10
54920;BME280;63804;53.120;8.764;2023-03-22T06:49:24;100715.59;;;9.39;75.29
54920;BME280;63804;53.120;8.764;2023-03-22T06:51:51;100708.50;;;9.40;75.38
54920;BME280;63804;53.120;8.764;2023-03-22T06:54:16;100709.22;;;9.42;75.38
54920;BME280;63804;53.120;8.764;2023-03-22T06:56:42;100715.13;;;9.45;75.22
54920;BME280;63804;53.120;8.764;2023-03-22T06:59:07;100706.59;;;9.53;74.84
54920;BME280;63804;53.120;8.764;2023-03-22T07:01:33;100704.03;;;9.63;74.60
54920;BME280;63804;53.120;8.764;2023-03-22T07:03:58;100706.44;;;9.66;74.38
54920;BME280;63804;53.120;8.764;2023-03-22T07:06:24;100702.81;;;9.67;74.29
54920;BME280;63804;53.120;8.764;2023-03-22T07:08:50;100714.28;;;9.67;74.34
54920;BME280;63804;53.120;8.764;2023-03-22T07:11:34;100708.41;;;9.64;74.61
54920;BME280;63804;53.120;8.764;2023-03-22T07:14:00;100704.88;;;9.63;74.44
54920;BME280;63804;53.120;8.764;2023-03-22T07:16:25;100699.34;;;9.66;74.56
54920;BME280;63804;53.120;8.764;2023-03-22T07:18:51;100706.44;;;9.66;74.65
54920;BME280;63804;53.120;8.764;2023-03-22T07:21:16;100698.25;;;9.69;74.54
54920;BME280;63804;53.120;8.764;2023-03-22T07:23:45;100697.50;;;9.78;73.99
54920;BME280;63804;53.120;8.764;2023-03-22T07:26:11;100692.81;;;9.82;73.98
54920;BME280;63804;53.120;8.764;2023-03-22T07:28:38;100690.91;;;9.84;74.14
54920;BME280;63804;53.120;8.764;2023-03-22T07:31:08;100681.84;;;9.86;73.83
54920;BME280;63804;53.120;8.764;2023-03-22T07:33:37;100682.94;;;9.95;73.74
54920;BME280;63804;53.120;8.764;2023-03-22T07:36:03;100677.88;;;9.92;73.39
54920;BME280;63804;53.120;8.764;2023-03-22T07:38:29;100677.66;;;9.84;73.74
54920;BME280;63804;53.120;8.764;2023-03-22T07:40:54;100666.91;;;9.85;73.75
54920;BME280;63804;53.120;8.764;2023-03-22T07:43:21;100670.88;;;9.91;73.44
54920;BME280;63804;53.120;8.764;2023-03-22T07:45:50;100667.97;;;9.94;73.53
54920;BME280;63804;53.120;8.764;2023-03-22T07:48:17;100664.97;;;9.87;73.85
54920;BME280;63804;53.120;8.764;2023-03-22T07:50:43;100670.75;;;9.92;73.41
54920;BME280;63804;53.120;8.764;2023-03-22T07:53:09;100659.53;;;9.89;73.73
54920;BME280;63804;53.120;8.764;2023-03-22T07:55:35;100672.66;;;10.02;73.26
54920;BME280;63804;53.120;8.764;2023-03-22T07:58:01;100650.31;;;10.15;72.79
54920;BME280;63804;53.120;8.764;2023-03-22T08:00:27;100657.28;;;10.16;72.67
54920;BME280;63804;53.120;8.764;2023-03-22T08:02:52;100647.03;;;10.23;72.32
54920;BME280;63804;53.120;8.764;2023-03-22T08:05:18;100655.09;;;10.33;72.25
54920;BME280;63804;53.120;8.764;2023-03-22T08:07:43;100656.13;;;10.41;71.82
54920;BME280;63804;53.120;8.764;2023-03-22T08:10:10;100652.09;;;10.47;71.47
54920;BME280;63804;53.120;8.764;2023-03-22T08:12:35;100656.06;;;10.53;71.46
54920;BME280;63804;53.120;8.764;2023-03-22T08:15:01;100655.28;;;10.62;71.09
54920;BME280;63804;53.120;8.764;2023-03-22T08:17:27;100657.50;;;10.57;71.69
54920;BME280;63804;53.120;8.764;2023-03-22T08:19:55;100638.38;;;10.63;71.05
54920;BME280;63804;53.120;8.764;2023-03-22T08:22:21;100643.50;;;10.55;71.28
54920;BME280;63804;53.120;8.764;2023-03-22T08:24:53;100635.53;;;10.55;70.83
54920;BME280;63804;53.120;8.764;2023-03-22T08:27:19;100624.47;;;10.71;70.89
54920;BME280;63804;53.120;8.764;2023-03-22T08:29:45;100628.81;;;10.72;70.70
54920;BME280;63804;53.120;8.764;2023-03-22T08:32:12;100631.78;;;10.78;70.46
54920;BME280;63804;53.120;8.764;2023-03-22T08:34:39;100633.06;;;10.63;70.86
54920;BME280;63804;53.120;8.764;2023-03-22T08:37:06;100635.16;;;10.59;71.14
54920;BME280;63804;53.120;8.764;2023-03-22T08:39:32;100642.34;;;10.68;70.84
54920;BME280;63804;53.120;8.764;2023-03-22T08:41:58;100632.22;;;10.83;69.56
54920;BME280;63804;53.120;8.764;2023-03-22T08:44:24;100637.41;;;11.06;69.27
54920;BME280;63804;53.120;8.764;2023-03-22T08:46:50;100620.91;;;11.12;69.08
54920;BME280;63804;53.120;8.764;2023-03-22T08:49:16;100623.84;;;11.09;69.26
54920;BME280;63804;53.120;8.764;2023-03-22T08:51:41;100630.25;;;11.06;69.06
54920;BME280;63804;53.120;8.764;2023-03-22T08:54:07;100624.53;;;11.11;68.76
54920;BME280;63804;53.120;8.764;2023-03-22T08:56:33;100624.22;;;11.25;68.38
54920;BME280;63804;53.120;8.764;2023-03-22T08:59:06;100626.06;;;11.25;68.23
54920;BME280;63804;53.120;8.764;2023-03-22T09:01:32;100617.72;;;11.49;67.48
54920;BME280;63804;53.120;8.764;2023-03-22T09:03:58;100609.09;;;11.66;66.95
54920;BME280;63804;53.120;8.764;2023-03-22T09:06:24;100612.88;;;11.63;66.87
54920;BME280;63804;53.120;8.764;2023-03-22T09:08:51;100609.59;;;11.50;66.64
54920;BME280;63804;53.120;8.764;2023-03-22T09:11:17;100604.56;;;11.47;67.18
54920;BME280;63804;53.120;8.764;2023-03-22T09:13:44;100619.06;;;11.33;67.53
54920;BME280;63804;53.120;8.764;2023-03-22T09:16:10;100611.31;;;11.21;67.11
54920;BME280;63804;53.120;8.764;2023-03-22T09:18:36;100596.13;;;11.11;67.11
54920;BME280;63804;53.120;8.764;2023-03-22T09:21:03;100602.44;;;11.10;66.42
54920;BME280;63804;53.120;8.764;2023-03-22T09:23:29;100595.88;;;11.14;66.51
54920;BME280;63804;53.120;8.764;2023-03-22T09:26:05;100601.50;;;11.21;65.42
54920;BME280;63804;53.120;8.764;2023-03-22T09:28:30;100597.81;;;11.33;65.53
54920;BME280;63804;53.120;8.764;2023-03-22T09:31:04;100587.47;;;11.50;64.95
54920;BME280;63804;53.120;8.764;2023-03-22T09:33:31;100579.38;;;11.61;65.29
54920;BME280;63804;53.120;8.764;2023-03-22T09:35:56;100584.84;;;11.69;64.53
54920;BME280;63804;53.120;8.764;2023-03-22T09:38:23;100586.84;;;11.67;64.32
54920;BME280;63804;53.120;8.764;2023-03-22T09:41:02;100584.31;;;11.85;63.10
54920;BME280;63804;53.120;8.764;2023-03-22T09:43:39;100592.00;;;11.59;64.49
54920;BME280;63804;53.120;8.764;2023-03-22T09:46:12;100592.84;;;11.59;63.81
54920;BME280;63804;53.120;8.764;2023-03-22T09:48:40;100583.44;;;11.55;63.68
54920;BME280;63804;53.120;8.764;2023-03-22T09:51:26;100600.09;;;11.57;62.00
54920;BME280;63804;53.120;8.764;2023-03-22T09:53:53;100608.53;;;11.62;63.10
54920;BME280;63804;53.120;8.764;2023-03-22T09:56:25;100595.66;;;11.68;61.90
54920;BME280;63804;53.120;8.764;2023-03-22T09:59:07;100606.81;;;11.52;61.80
54920;BME280;63804;53.120;8.764;2023-03-22T10:01:44;100611.31;;;11.61;62.40
54920;BME280;63804;53.120;8.764;2023-03-22T10:07:04;100604.25;;;11.40;62.53
54920;BME280;63804;53.120;8.764;2023-03-22T10:12:28;100601.50;;;11.61;62.45
54920;BME280;63804;53.120;8.764;2023-03-22T10:15:05;100621.88;;;11.92;61.52
54920;BME280;63804;53.120;8.764;2023-03-22T10:17:34;100603.13;;;12.03;61.18
54920;BME280;63804;53.120;8.764;2023-03-22T10:20:06;100602.00;;;11.96;60.84
54920;BME280;63804;53.120;8.764;2023-03-22T10:22:42;100599.19;;;12.07;60.79
54920;BME280;63804;53.120;8.764;2023-03-22T10:25:15;100605.22;;;11.99;61.17
54920;BME280;63804;53.120;8.764;2023-03-22T10:27:41;100602.28;;;12.02;61.34
54920;BME280;63804;53.120;8.764;2023-03-22T10:30:23;100617.03;;;12.16;59.95
54920;BME280;63804;53.120;8.764;2023-03-22T10:35:15;100591.22;;;12.17;60.67
54920;BME280;63804;53.120;8.764;2023-03-22T10:37:46;100598.50;;;12.14;60.39
54920;BME280;63804;53.120;8.764;2023-03-22T10:40:26;100602.16;;;12.13;59.46
54920;BME280;63804;53.120;8.764;2023-03-22T10:42:59;100617.28;;;12.03;60.80
54920;BME280;63804;53.120;8.764;2023-03-22T10:45:30;100600.34;;;12.04;60.18
54920;BME280;63804;53.120;8.764;2023-03-22T10:48:23;100615.88;;;11.99;59.98
54920;BME280;63804;53.120;8.764;2023-03-22T10:50:49;100605.78;;;11.93;61.02
54920;BME280;63804;53.120;8.764;2023-03-22T10:55:46;100612.94;;;12.02;59.61
54920;BME280;63804;53.120;8.764;2023-03-22T10:58:17;100614.34;;;11.97;59.54
54920;BME280;63804;53.120;8.764;2023-03-22T11:00:52;100612.78;;;12.04;59.33
54920;BME280;63804;53.120;8.764;2023-03-22T11:03:37;100602.31;;;12.12;59.18
54920;BME280;63804;53.120;8.764;2023-03-22T11:06:18;100596.81;;;12.13;57.32
54920;BME280;63804;53.120;8.764;2023-03-22T11:11:23;100577.78;;;12.08;58.09
54920;BME280;63804;53.120;8.764;2023-03-22T11:13:53;100577.47;;;12.11;58.98
54920;BME280;63804;53.120;8.764;2023-03-22T11:16:19;100574.97;;;12.10;59.12
54920;BME280;63804;53.120;8.764;2023-03-22T11:18:45;100589.00;;;12.12;58.61
54920;BME280;63804;53.120;8.764;2023-03-22T11:21:14;100583.78;;;12.10;58.53
54920;BME280;63804;53.120;8.764;2023-03-22T11:23:47;100582.78;;;12.11;58.38
54920;BME280;63804;53.120;8.764;2023-03-22T11:26:24;100569.34;;;12.13;57.45
54920;BME280;63804;53.120;8.764;2023-03-22T11:28:50;100582.53;;;12.24;57.92
54920;BME280;63804;53.120;8.764;2023-03-22T11:31:18;100579.72;;;12.26;57.49
54920;BME280;63804;53.120;8.764;2023-03-22T11:33:58;100592.88;;;12.37;57.07
54920;BME280;63804;53.120;8.764;2023-03-22T11:36:42;100584.91;;;12.27;56.94
54920;BME280;63804;53.120;8.764;2023-03-22T11:39:08;100588.84;;;12.13;57.71
54920;BME280;63804;53.120;8.764;2023-03-22T11:41:35;100592.59;;;12.11;57.65
54920;BME280;63804;53.120;8.764;2023-03-22T11:44:04;100594.72;;;12.07;57.64
54920;BME280;63804;53.120;8.764;2023-03-22T11:46:36;100584.47;;;12.03;57.54
54920;BME280;63804;53.120;8.764;2023-03-22T11:49:13;100587.28;;;12.01;57.47
54920;BME280;63804;53.120;8.764;2023-03-22T11:51:42;100601.03;;;11.97;58.10
54920;BME280;63804;53.120;8.764;2023-03-22T11:56:48;100612.22;;;11.90;58.43
54920;BME280;63804;53.120;8.764;2023-03-22T11:59:27;100601.00;;;11.87;57.82
54920;BME280;63804;53.120;8.764;2023-03-22T12:02:02;100605.06;;;11.81;58.80
54920;BME280;63804;53.120;8.764;2023-03-22T12:04:34;100596.09;;;11.82;58.95
54920;BME280;63804;53.120;8.764;2023-03-22T12:07:22;100604.34;;;11.79;58.91
54920;BME280;63804;53.120;8.764;2023-03-22T12:09:57;100597.06;;;11.72;60.08
54920;BME280;63804;53.120;8.764;2023-03-22T12:12:31;100599.19;;;11.78;60.32
54920;BME280;63804;53.120;8.764;2023-03-22T12:15:23;100604.09;;;11.82;60.29
54920;BME280;63804;53.120;8.764;2023-03-22T12:17:55;100611.63;;;11.68;61.18
54920;BME280;63804;53.120;8.764;2023-03-22T12:22:58;100600.78;;;11.50;62.27
54920;BME280;63804;53.120;8.764;2023-03-22T12:25:26;100593.63;;;11.40;62.44
54920;BME280;63804;53.120;8.764;2023-03-22T12:27:55;100595.81;;;11.35;63.44
54920;BME280;63804;53.120;8.764;2023-03-22T12:30:25;100605.19;;;11.30;64.28
54920;BME280;63804;53.120;8.764;2023-03-22T12:33:00;100603.63;;;11.27;64.65
54920;BME280;63804;53.120;8.764;2023-03-22T12:35:34;100592.81;;;11.19;65.43
54920;BME280;63804;53.120;8.764;2023-03-22T12:38:14;100587.38;;;11.21;65.41
54920;BME280;63804;53.120;8.764;2023-03-22T12:40:42;100585.97;;;11.16;65.71
54920;BME280;63804;53.120;8.764;2023-03-22T12:43:21;100579.50;;;11.09;66.56
54920;BME280;63804;53.120;8.764;2023-03-22T12:45:58;100593.38;;;11.13;66.21
54920;BME280;63804;53.120;8.764;2023-03-22T12:48:35;100594.06;;;11.15;66.56
54920;BME280;63804;53.120;8.764;2023-03-22T12:51:08;100591.94;;;11.09;66.52
54920;BME280;63804;53.120;8.764;2023-03-22T12:53:38;100596.28;;;11.10;66.43
54920;BME280;63804;53.120;8.764;2023-03-22T12:56:12;100588.47;;;11.18;65.94
54920;BME280;63804;53.120;8.764;2023-03-22T12:58:41;100582.38;;;11.27;65.95
54920;BME280;63804;53.120;8.764;2023-03-22T13:03:47;100581.69;;;11.25;66.43
54920;BME280;63804;53.120;8.764;2023-03-22T13:06:53;100586.44;;;11.31;66.15
54920;BME280;63804;53.120;8.764;2023-03-22T13:09:33;100592.75;;;11.30;66.73
54920;BME280;63804;53.120;8.764;2023-03-22T13:32:47;100596.03;;;11.53;65.81
54920;BME280;63804;53.120;8.764;2023-03-22T13:35:25;100585.13;;;11.56;65.93
54920;BME280;63804;53.120;8.764;2023-03-22T13:37:53;100590.13;;;11.50;66.05
54920;BME280;63804;53.120;8.764;2023-03-22T13:42:51;100601.88;;;11.37;66.35
54920;BME280;63804;53.120;8.764;2023-03-22T13:45:32;100604.97;;;11.43;65.87
54920;BME280;63804;53.120;8.764;2023-03-22T13:48:14;100589.28;;;11.39;65.36
54920;BME280;63804;53.120;8.764;2023-03-22T13:50:52;100590.09;;;11.30;66.21
54920;BME280;63804;53.120;8.764;2023-03-22T13:53:28;100600.97;;;11.27;65.96
54920;BME280;63804;53.120;8.764;2023-03-22T14:01:04;100596.03;;;11.23;66.40
54920;BME280;63804;53.120;8.764;2023-03-22T14:03:40;100585.81;;;11.18;65.70
54920;BME280;63804;53.120;8.764;2023-03-22T14:06:15;100578.41;;;11.22;65.97
54920;BME280;63804;53.120;8.764;2023-03-22T14:08:45;100578.34;;;11.12;65.77
54920;BME280;63804;53.120;8.764;2023-03-22T14:11:28;100572.25;;;11.21;64.97
54920;BME280;63804;53.120;8.764;2023-03-22T14:14:09;100587.31;;;11.11;65.44
54920;BME280;63804;53.120;8.764;2023-03-22T14:16:49;100578.75;;;10.98;65.56
54920;BME280;63804;53.120;8.764;2023-03-22T14:19:28;100588.81;;;11.04;65.34
54920;BME280;63804;53.120;8.764;2023-03-22T14:21:57;100589.09;;;11.01;65.64
54920;BME280;63804;53.120;8.764;2023-03-22T14:24:25;100586.56;;;10.99;65.64